createdAt,value
2023-04-02T00:00:06.781Z,6.57
2023-04-02T00:02:35.285Z,9.07
2023-04-02T00:05:55.996Z,8.87
2023-04-02T00:08:27.752Z,8.27
2023-04-02T00:10:57.886Z,10.03
2023-04-02T00:13:34.182Z,11.77
2023-04-02T00:16:04.540Z,10.43
2023-04-02T00:18:34.410Z,11.70
2023-04-02T00:21:11.539Z,11.97
2023-04-02T00:23:42.036Z,10.13
2023-04-02T00:26:30.395Z,10.33
2023-04-02T00:29:00.788Z,10.40
2023-04-02T00:31:29.665Z,9.17
2023-04-02T00:33:59.699Z,11.43
2023-04-02T00:36:34.075Z,7.93
2023-04-02T00:39:08.886Z,11.43
2023-04-02T00:41:39.451Z,9.63
2023-04-02T00:44:13.803Z,8.40
2023-04-02T00:46:49.751Z,10.37
2023-04-02T00:49:26.256Z,9.27
2023-04-02T00:51:58.351Z,8.50
2023-04-02T00:54:32.356Z,11.03
2023-04-02T00:57:01.396Z,9.23
2023-04-02T00:59:33.004Z,8.10
2023-04-02T01:02:22.577Z,7.70
2023-04-02T01:04:55.363Z,9.77
2023-04-02T01:07:37.514Z,8.90
2023-04-02T01:10:37.427Z,9.17
2023-04-02T01:13:16.148Z,9.07
2023-04-02T01:15:52.322Z,8.10
2023-04-02T01:18:33.310Z,10.80
2023-04-02T01:21:16.334Z,10.20
2023-04-02T01:24:05.580Z,11.17
2023-04-02T01:26:48.077Z,12.70
2023-04-02T01:29:20.763Z,9.90
2023-04-02T01:31:50.781Z,8.00
2023-04-02T01:34:21.946Z,8.63
2023-04-02T01:37:03.832Z,6.93
2023-04-02T01:39:55.474Z,12.67
2023-04-02T01:42:30.615Z,9.00
2023-04-02T01:45:05.140Z,10.20
2023-04-02T01:47:34.125Z,8.10
2023-04-02T01:50:04.892Z,11.60
2023-04-02T01:52:40.773Z,13.00
2023-04-02T01:55:10.638Z,12.67
2023-04-02T01:57:39.095Z,11.73
2023-04-02T02:00:13.803Z,11.43
2023-04-02T02:02:43.797Z,11.43
2023-04-02T02:05:15.751Z,10.40
2023-04-02T02:07:44.774Z,11.13
2023-04-02T02:10:16.648Z,10.73
2023-04-02T02:12:46.162Z,12.67
2023-04-02T02:15:19.115Z,10.83
2023-04-02T02:17:47.941Z,10.60
2023-04-02T02:20:17.595Z,11.10
2023-04-02T02:22:48.437Z,9.70
2023-04-02T02:25:19.674Z,8.30
2023-04-02T02:27:55.158Z,9.07
2023-04-02T02:30:28.224Z,8.50
2023-04-02T02:33:02.209Z,7.97
2023-04-02T02:35:34.670Z,8.33
2023-04-02T02:38:40.055Z,9.57
2023-04-02T02:41:15.350Z,9.03
2023-04-02T02:43:49.928Z,10.07
2023-04-02T02:46:23.481Z,9.73
2023-04-02T02:48:54.547Z,8.43
2023-04-02T02:51:29.697Z,10.10
2023-04-02T02:54:02.547Z,9.60
2023-04-02T02:56:36.928Z,12.13
2023-04-02T02:59:08.264Z,9.03
2023-04-02T03:01:38.367Z,9.13
2023-04-02T03:04:06.861Z,9.37
2023-04-02T03:06:36.699Z,8.77
2023-04-02T03:09:14.215Z,9.30
2023-04-02T03:11:48.381Z,13.20
2023-04-02T03:14:24.518Z,10.23
2023-04-02T03:16:59.869Z,9.73
2023-04-02T03:19:33.892Z,11.83
2023-04-02T03:22:07.768Z,10.33
2023-04-02T03:24:39.424Z,11.40
2023-04-02T03:27:13.092Z,10.00
2023-04-02T03:29:44.891Z,11.60
2023-04-02T03:32:18.777Z,13.23
2023-04-02T03:34:50.949Z,11.70
2023-04-02T03:37:23.836Z,9.27
2023-04-02T03:39:58.327Z,12.50
2023-04-02T03:42:29.918Z,11.43
2023-04-02T03:45:01.409Z,9.77
2023-04-02T03:47:35.431Z,13.60
2023-04-02T03:50:08.190Z,9.83
2023-04-02T03:52:38.490Z,13.37
2023-04-02T03:55:16.149Z,12.30
2023-04-02T03:57:53.869Z,10.80
2023-04-02T04:00:27.231Z,11.60
2023-04-02T04:03:00.258Z,13.43
2023-04-02T04:05:31.993Z,12.70
2023-04-02T04:08:04.666Z,12.90
2023-04-02T04:10:33.978Z,12.93
2023-04-02T04:13:07.000Z,13.23
2023-04-02T04:15:40.178Z,12.47
2023-04-02T04:18:19.916Z,8.57
2023-04-02T04:20:56.696Z,14.53
2023-04-02T04:23:31.178Z,10.43
2023-04-02T04:26:05.634Z,10.73
2023-04-02T04:28:42.177Z,13.77
2023-04-02T04:31:21.155Z,10.07
2023-04-02T04:34:03.384Z,13.03
2023-04-02T04:36:36.945Z,12.07
2023-04-02T04:39:10.200Z,11.23
2023-04-02T04:41:40.476Z,12.13
2023-04-02T04:44:17.442Z,10.73
2023-04-02T04:46:50.919Z,11.93
2023-04-02T04:49:25.375Z,8.57
2023-04-02T04:51:57.508Z,9.87
2023-04-02T04:54:28.200Z,12.53
2023-04-02T04:57:00.993Z,11.47
2023-04-02T04:59:32.672Z,10.47
2023-04-02T05:02:06.168Z,10.60
2023-04-02T05:04:39.132Z,12.93
2023-04-02T05:07:11.613Z,13.50
2023-04-02T05:09:45.254Z,8.27
2023-04-02T05:12:22.947Z,12.23
2023-04-02T05:14:55.444Z,12.97
2023-04-02T05:17:29.541Z,14.80
2023-04-02T05:20:07.455Z,11.93
2023-04-02T05:22:41.400Z,9.27
2023-04-02T05:25:24.519Z,14.23
2023-04-02T05:27:59.234Z,13.53
2023-04-02T05:30:49.491Z,14.77
2023-04-02T05:33:25.763Z,14.10
2023-04-02T05:36:00.791Z,14.27
2023-04-02T05:38:31.569Z,16.40
2023-04-02T05:41:06.128Z,14.43
2023-04-02T05:43:36.900Z,15.40
2023-04-02T05:46:14.888Z,15.07
2023-04-02T05:48:45.213Z,19.77
2023-04-02T05:51:20.150Z,19.57
2023-04-02T05:53:50.770Z,21.40
2023-04-02T05:56:23.044Z,22.13
2023-04-02T05:58:54.135Z,19.13
2023-04-02T06:01:40.515Z,16.63
2023-04-02T06:04:17.520Z,18.40
2023-04-02T06:06:54.548Z,22.33
2023-04-02T06:09:30.041Z,18.47
2023-04-02T06:12:05.626Z,17.00
2023-04-02T06:14:34.160Z,17.60
2023-04-02T06:17:02.509Z,21.27
2023-04-02T06:19:34.780Z,22.90
2023-04-02T06:22:17.766Z,22.00
2023-04-02T06:24:48.654Z,22.83
2023-04-02T06:27:22.802Z,20.50
2023-04-02T06:29:55.697Z,22.73
2023-04-02T06:32:27.016Z,17.87
2023-04-02T06:34:55.910Z,23.87
2023-04-02T06:37:31.564Z,15.73
2023-04-02T06:40:01.656Z,15.97
2023-04-02T06:42:35.069Z,14.30
2023-04-02T06:45:03.543Z,15.17
2023-04-02T06:47:35.529Z,15.77
2023-04-02T06:50:09.888Z,14.63
2023-04-02T06:52:46.039Z,14.57
2023-04-02T06:55:33.171Z,14.10
2023-04-02T06:58:01.904Z,14.83
2023-04-02T07:00:36.306Z,17.47
2023-04-02T07:03:08.247Z,16.83
2023-04-02T07:05:36.928Z,14.53
2023-04-02T07:08:07.955Z,17.90
2023-04-02T07:10:36.397Z,19.97
2023-04-02T07:13:05.958Z,19.67
2023-04-02T07:15:34.691Z,21.03
2023-04-02T07:18:03.435Z,18.83
2023-04-02T07:20:34.155Z,28.40
2023-04-02T07:23:02.512Z,34.83
2023-04-02T07:25:32.366Z,37.90
2023-04-02T07:28:01.629Z,39.03
2023-04-02T07:30:29.917Z,33.97
2023-04-02T07:32:58.423Z,30.80
2023-04-02T07:38:12.467Z,31.13
2023-04-02T07:40:42.970Z,37.47
2023-04-02T07:43:15.320Z,29.93
2023-04-02T07:45:44.623Z,25.47
2023-04-02T07:48:18.057Z,26.17
2023-04-02T07:50:46.518Z,29.13
2023-04-02T07:53:30.037Z,29.73
2023-04-02T07:56:03.178Z,25.03
2023-04-02T07:59:37.448Z,25.07
2023-04-02T08:01:29.995Z,25.67
2023-04-02T08:04:39.797Z,25.17
2023-04-02T08:11:12.546Z,22.77
2023-04-02T08:13:42.045Z,18.67
2023-04-02T08:16:22.021Z,20.13
2023-04-02T08:18:50.635Z,17.53
2023-04-02T08:21:28.370Z,19.67
2023-04-02T08:23:56.927Z,18.43
2023-04-02T08:26:26.705Z,17.37
2023-04-02T08:41:42.236Z,19.23
2023-04-02T08:51:42.922Z,17.23
2023-04-02T09:03:51.429Z,15.50
2023-04-02T09:06:22.280Z,17.33
2023-04-02T09:09:00.504Z,15.85
2023-04-02T09:11:36.268Z,13.57
2023-04-02T09:14:15.517Z,8.43
2023-04-02T09:23:31.864Z,3.97
2023-04-02T09:26:04.525Z,3.40
2023-04-02T09:28:46.422Z,6.85
2023-04-02T09:31:28.711Z,5.00
2023-04-02T09:33:58.033Z,4.63
2023-04-02T09:36:37.220Z,15.38
2023-04-02T09:42:05.001Z,7.93
2023-04-02T09:44:34.967Z,8.85
2023-04-02T09:47:08.815Z,13.73
2023-04-02T09:50:01.899Z,10.38
2023-04-02T09:52:34.067Z,7.90
2023-04-02T09:55:22.054Z,10.80
2023-04-02T09:58:08.284Z,13.95
2023-04-02T10:00:36.958Z,10.85
2023-04-02T10:03:24.297Z,4.88
2023-04-02T10:06:09.110Z,10.73
2023-04-02T10:08:39.051Z,8.68
2023-04-02T10:11:11.481Z,6.45
2023-04-02T10:17:13.773Z,4.32
2023-04-02T10:27:10.780Z,2.85
2023-04-02T10:38:16.513Z,4.00
2023-04-02T10:45:24.867Z,4.55
2023-04-02T10:59:12.429Z,4.40
2023-04-02T11:01:43.888Z,4.80
2023-04-02T11:04:21.211Z,5.65
2023-04-02T11:07:14.860Z,5.47
2023-04-02T11:10:13.701Z,4.03
2023-04-02T11:12:52.826Z,2.15
2023-04-02T11:15:31.691Z,3.70
2023-04-02T11:18:05.668Z,2.80
2023-04-02T11:24:52.092Z,3.28
2023-04-02T11:31:04.839Z,1.67
2023-04-02T11:33:56.104Z,3.30
2023-04-02T11:37:33.348Z,4.70
2023-04-02T11:44:02.302Z,2.10
2023-04-02T13:37:11.143Z,4.10
2023-04-02T13:40:04.260Z,5.28
2023-04-02T13:43:09.567Z,4.15
2023-04-02T13:45:46.028Z,3.05
2023-04-02T13:48:30.230Z,2.60
2023-04-02T13:51:11.592Z,3.25
2023-04-02T13:54:17.140Z,3.50
2023-04-02T13:59:54.830Z,2.35
2023-04-02T14:02:43.918Z,4.20
2023-04-02T14:05:33.575Z,4.90
2023-04-02T14:50:00.509Z,1.85
2023-04-02T14:52:34.690Z,4.70
2023-04-02T14:55:07.295Z,4.57
2023-04-02T14:57:39.740Z,3.95
2023-04-02T15:00:20.621Z,2.42
2023-04-02T15:02:54.364Z,2.22
2023-04-02T15:11:54.355Z,0.80
2023-04-02T15:16:48.239Z,0.77
2023-04-02T15:22:48.732Z,1.15
2023-04-02T15:25:52.937Z,0.85
2023-04-02T15:28:34.308Z,0.75
2023-04-02T15:31:08.318Z,1.15
2023-04-02T15:37:52.573Z,2.17
2023-04-02T15:55:28.474Z,1.42
2023-04-02T16:12:10.625Z,4.20
2023-04-02T16:15:06.591Z,3.15
2023-04-02T16:17:57.510Z,2.00
2023-04-02T16:20:48.538Z,2.78
2023-04-02T16:27:48.169Z,3.85
2023-04-02T16:38:09.246Z,16.92
2023-04-02T16:41:25.593Z,42.58
2023-04-02T16:52:14.467Z,21.08
2023-04-02T16:55:35.260Z,13.02
2023-04-02T17:02:19.321Z,5.80
2023-04-02T17:12:49.317Z,4.78
2023-04-02T17:16:00.710Z,5.00
2023-04-02T17:19:04.700Z,6.53
2023-04-02T17:26:14.654Z,4.90
2023-04-02T17:29:07.910Z,5.43
2023-04-02T17:32:43.276Z,3.70
2023-04-02T17:35:30.588Z,2.40
2023-04-02T17:38:12.854Z,1.90
2023-04-02T17:40:50.724Z,1.75
2023-04-02T18:09:49.641Z,7.50
2023-04-02T18:20:40.679Z,10.45
2023-04-02T18:25:12.570Z,28.35
2023-04-02T18:27:54.256Z,29.05
2023-04-02T18:30:54.599Z,24.33
2023-04-02T18:44:48.908Z,26.67
2023-04-02T18:47:26.377Z,41.28
2023-04-02T18:50:06.715Z,52.37
2023-04-02T18:52:36.295Z,58.07
2023-04-02T18:55:09.235Z,42.77
2023-04-02T18:57:42.298Z,32.30
2023-04-02T19:00:23.415Z,22.20
2023-04-02T19:02:58.636Z,14.57
2023-04-02T19:05:34.228Z,12.37
2023-04-02T19:08:09.766Z,12.53
2023-04-02T19:10:40.034Z,11.23
2023-04-02T19:13:14.509Z,14.17
2023-04-02T19:16:13.605Z,21.03
2023-04-02T19:18:57.647Z,17.43
2023-04-02T19:21:34.644Z,12.60
2023-04-02T19:24:17.460Z,9.77
2023-04-02T19:26:53.176Z,7.10
2023-04-02T19:29:31.722Z,11.30
2023-04-02T19:32:08.093Z,14.60
2023-04-02T19:34:41.682Z,14.60
2023-04-02T19:37:18.163Z,11.20
2023-04-02T19:40:11.716Z,12.90
2023-04-02T19:42:48.078Z,12.70
2023-04-02T19:45:29.727Z,11.43
2023-04-02T19:48:00.568Z,13.87
2023-04-02T19:50:30.700Z,16.93
2023-04-02T19:52:59.133Z,16.47
2023-04-02T19:55:28.914Z,12.40
2023-04-02T19:58:04.454Z,11.13
2023-04-02T20:00:46.031Z,11.50
2023-04-02T20:03:14.613Z,12.73
2023-04-02T20:05:44.416Z,15.30
2023-04-02T20:08:13.455Z,11.07
2023-04-02T20:10:42.741Z,8.10
2023-04-02T20:13:11.288Z,8.13
2023-04-02T20:15:41.731Z,6.80
2023-04-02T20:18:11.201Z,6.63
2023-04-02T20:20:40.346Z,6.27
2023-04-02T20:23:10.979Z,6.77
2023-04-02T20:25:40.078Z,8.73
2023-04-02T20:28:08.463Z,8.50
2023-04-02T20:30:38.261Z,7.77
2023-04-02T20:33:06.942Z,6.10
2023-04-02T20:35:35.806Z,8.33
2023-04-02T20:38:06.628Z,7.17
2023-04-02T20:40:36.849Z,7.00
2023-04-02T20:43:05.532Z,9.63
2023-04-02T20:45:33.902Z,7.73
2023-04-02T20:48:02.231Z,6.63
2023-04-02T20:50:30.934Z,5.80
2023-04-02T20:52:59.874Z,5.53
2023-04-02T20:55:28.273Z,5.43
2023-04-02T20:57:57.923Z,8.57
2023-04-02T21:00:26.253Z,7.23
2023-04-02T21:02:54.807Z,8.13
2023-04-02T21:05:23.261Z,7.33
2023-04-02T21:07:51.639Z,4.40
2023-04-02T21:10:21.704Z,3.50
2023-04-02T21:12:50.518Z,4.27
2023-04-02T21:15:20.690Z,3.20
2023-04-02T21:17:49.154Z,3.60
2023-04-02T21:20:17.714Z,2.97
2023-04-02T21:22:46.089Z,3.77
2023-04-02T21:25:14.422Z,5.80
2023-04-02T21:27:42.688Z,3.20
2023-04-02T21:30:12.280Z,4.90
2023-04-02T21:32:42.091Z,3.50
2023-04-02T21:35:10.802Z,3.50
2023-04-02T21:37:39.519Z,4.57
2023-04-02T21:40:09.688Z,4.70
2023-04-02T21:42:38.601Z,6.83
2023-04-02T21:45:08.599Z,4.87
2023-04-02T21:47:36.914Z,5.83
2023-04-02T21:50:08.658Z,3.93
2023-04-02T21:52:37.110Z,3.70
2023-04-02T21:55:06.079Z,4.30
2023-04-02T21:57:34.388Z,4.07
2023-04-02T22:00:08.156Z,4.00
2023-04-02T22:02:36.446Z,3.90
2023-04-02T22:05:06.980Z,6.40
2023-04-02T22:07:35.203Z,3.77
2023-04-02T22:10:03.681Z,4.43
2023-04-02T22:12:31.873Z,5.63
2023-04-02T22:15:00.149Z,4.27
2023-04-02T22:17:28.435Z,5.13
2023-04-02T22:19:56.680Z,5.80
2023-04-02T22:22:26.311Z,5.27
2023-04-02T22:24:56.277Z,4.23
2023-04-02T22:27:24.562Z,4.70
2023-04-02T22:29:52.826Z,4.33
2023-04-02T22:32:21.130Z,4.43
2023-04-02T22:34:49.748Z,5.10
2023-04-02T22:37:18.004Z,4.80
2023-04-02T22:39:47.607Z,3.93
2023-04-02T22:42:15.838Z,3.90
2023-04-02T22:44:44.082Z,4.30
2023-04-02T22:47:12.340Z,4.53
2023-04-02T22:49:40.560Z,4.37
2023-04-02T22:52:09.129Z,3.57
2023-04-02T22:54:37.465Z,3.50
2023-04-02T22:57:07.216Z,3.30
2023-04-02T22:59:35.472Z,4.50
2023-04-02T23:02:03.869Z,2.70
2023-04-02T23:04:32.148Z,2.03
2023-04-02T23:07:00.372Z,2.87
2023-04-02T23:09:28.784Z,4.00
2023-04-02T23:11:56.996Z,4.00
2023-04-02T23:14:26.704Z,6.13
2023-04-02T23:16:54.947Z,4.43
2023-04-02T23:19:23.153Z,4.23
2023-04-02T23:21:51.717Z,4.77
2023-04-02T23:24:19.971Z,3.60
2023-04-02T23:26:48.243Z,4.90
2023-04-02T23:29:16.550Z,4.30
2023-04-02T23:31:46.780Z,3.93
2023-04-02T23:34:15.187Z,3.43
2023-04-02T23:36:43.574Z,3.50
2023-04-02T23:39:13.525Z,3.67
2023-04-02T23:41:43.112Z,3.60
2023-04-02T23:44:11.682Z,2.90
2023-04-02T23:46:39.979Z,3.93
2023-04-02T23:49:12.955Z,4.80
2023-04-02T23:51:41.508Z,2.90
2023-04-02T23:54:09.778Z,2.83
2023-04-02T23:56:38.060Z,2.90
2023-04-02T23:59:06.450Z,5.13
